createdAt,value
2022-07-30T00:01:13.900Z,100.00
2022-07-30T00:03:40.515Z,100.00
2022-07-30T00:06:07.095Z,100.00
2022-07-30T00:08:33.998Z,100.00
2022-07-30T00:11:00.534Z,100.00
2022-07-30T00:13:27.138Z,100.00
2022-07-30T00:15:53.651Z,100.00
2022-07-30T00:18:20.148Z,100.00
2022-07-30T00:20:48.845Z,100.00
2022-07-30T00:23:15.610Z,100.00
2022-07-30T00:25:42.112Z,100.00
2022-07-30T00:28:08.594Z,100.00
2022-07-30T00:30:35.232Z,100.00
2022-07-30T00:33:02.170Z,100.00
2022-07-30T00:35:28.937Z,100.00
2022-07-30T00:37:55.489Z,100.00
2022-07-30T00:40:22.152Z,100.00
2022-07-30T00:42:48.910Z,100.00
2022-07-30T00:45:17.262Z,100.00
2022-07-30T00:47:44.211Z,100.00
2022-07-30T00:50:12.438Z,100.00
2022-07-30T00:52:39.482Z,100.00
2022-07-30T00:55:09.365Z,100.00
2022-07-30T00:57:36.208Z,100.00
2022-07-30T01:00:05.194Z,100.00
2022-07-30T01:02:31.714Z,100.00
2022-07-30T01:04:58.269Z,100.00
2022-07-30T01:07:27.188Z,100.00
2022-07-30T01:09:53.924Z,100.00
2022-07-30T01:12:23.219Z,100.00
2022-07-30T01:14:49.851Z,100.00
2022-07-30T01:17:16.485Z,100.00
2022-07-30T01:19:53.767Z,100.00
2022-07-30T01:22:30.241Z,100.00
2022-07-30T01:25:25.604Z,100.00
2022-07-30T01:27:58.737Z,100.00
2022-07-30T01:30:29.898Z,100.00
2022-07-30T01:32:58.845Z,100.00
2022-07-30T01:35:28.046Z,100.00
2022-07-30T01:37:56.680Z,100.00
2022-07-30T01:40:25.266Z,100.00
2022-07-30T01:42:54.984Z,100.00
2022-07-30T01:45:24.284Z,100.00
2022-07-30T01:47:55.832Z,100.00
2022-07-30T01:50:22.875Z,100.00
2022-07-30T01:52:52.711Z,100.00
2022-07-30T01:55:25.830Z,100.00
2022-07-30T01:57:54.505Z,100.00
2022-07-30T02:00:22.665Z,100.00
2022-07-30T02:02:49.153Z,100.00
2022-07-30T02:05:15.835Z,100.00
2022-07-30T02:08:04.836Z,100.00
2022-07-30T02:10:36.529Z,100.00
2022-07-30T02:13:06.626Z,100.00
2022-07-30T02:15:43.326Z,100.00
2022-07-30T02:18:23.856Z,100.00
2022-07-30T02:21:07.600Z,100.00
2022-07-30T02:23:40.802Z,100.00
2022-07-30T02:26:09.995Z,100.00
2022-07-30T02:28:39.971Z,100.00
2022-07-30T02:31:17.519Z,100.00
2022-07-30T02:33:49.461Z,100.00
2022-07-30T02:36:18.628Z,100.00
2022-07-30T02:38:46.490Z,100.00
2022-07-30T02:41:13.609Z,100.00
2022-07-30T02:43:42.351Z,100.00
2022-07-30T02:46:11.715Z,100.00
2022-07-30T02:48:39.997Z,100.00
2022-07-30T02:51:08.636Z,100.00
2022-07-30T02:53:37.542Z,100.00
2022-07-30T02:56:07.001Z,100.00
2022-07-30T02:58:35.644Z,100.00
2022-07-30T03:01:03.223Z,100.00
2022-07-30T03:03:31.157Z,100.00
2022-07-30T03:05:59.548Z,100.00
2022-07-30T03:08:27.931Z,100.00
2022-07-30T03:10:56.206Z,100.00
2022-07-30T03:13:24.234Z,100.00
2022-07-30T03:15:52.850Z,100.00
2022-07-30T03:18:20.310Z,100.00
2022-07-30T03:20:50.385Z,100.00
2022-07-30T03:23:19.409Z,100.00
2022-07-30T03:25:50.955Z,100.00
2022-07-30T03:28:23.585Z,100.00
2022-07-30T03:30:52.475Z,100.00
2022-07-30T03:33:20.313Z,100.00
2022-07-30T03:35:49.278Z,100.00
2022-07-30T03:38:16.546Z,100.00
2022-07-30T03:40:44.671Z,100.00
2022-07-30T03:43:32.533Z,100.00
2022-07-30T03:46:00.988Z,100.00
2022-07-30T03:48:28.160Z,100.00
2022-07-30T03:50:55.619Z,100.00
2022-07-30T03:53:25.018Z,100.00
2022-07-30T03:55:53.194Z,100.00
2022-07-30T03:58:19.836Z,100.00
2022-07-30T04:00:51.030Z,100.00
2022-07-30T04:03:28.862Z,100.00
2022-07-30T04:05:55.411Z,100.00
2022-07-30T04:08:22.087Z,100.00
2022-07-30T04:10:49.602Z,100.00
2022-07-30T04:13:16.281Z,100.00
2022-07-30T04:16:36.916Z,100.00
2022-07-30T04:18:47.627Z,100.00
2022-07-30T04:21:18.071Z,100.00
2022-07-30T04:24:02.278Z,100.00
2022-07-30T04:26:33.701Z,100.00
2022-07-30T04:29:01.155Z,100.00
2022-07-30T04:31:28.945Z,100.00
2022-07-30T04:33:55.611Z,100.00
2022-07-30T04:36:30.756Z,100.00
2022-07-30T04:38:58.238Z,100.00
2022-07-30T04:41:25.482Z,100.00
2022-07-30T04:43:52.724Z,100.00
2022-07-30T04:46:19.266Z,100.00
2022-07-30T04:48:48.141Z,100.00
2022-07-30T04:51:24.216Z,100.00
2022-07-30T04:53:52.360Z,100.00
2022-07-30T04:56:21.079Z,100.00
2022-07-30T04:58:48.220Z,100.00
2022-07-30T05:01:40.907Z,100.00
2022-07-30T05:04:10.618Z,100.00
2022-07-30T05:06:37.992Z,100.00
2022-07-30T05:09:04.706Z,100.00
2022-07-30T05:11:31.266Z,100.00
2022-07-30T05:13:58.122Z,100.00
2022-07-30T05:16:24.990Z,100.00
2022-07-30T05:18:51.781Z,100.00
2022-07-30T05:21:18.413Z,100.00
2022-07-30T05:23:50.199Z,100.00
2022-07-30T05:26:21.287Z,100.00
2022-07-30T05:28:53.637Z,100.00
2022-07-30T05:31:22.107Z,100.00
2022-07-30T05:33:49.103Z,100.00
2022-07-30T05:36:15.703Z,100.00
2022-07-30T05:38:42.209Z,100.00
2022-07-30T05:41:30.816Z,100.00
2022-07-30T05:43:55.756Z,100.00
2022-07-30T05:46:23.241Z,100.00
2022-07-30T05:48:49.915Z,100.00
2022-07-30T05:51:16.925Z,100.00
2022-07-30T05:53:43.413Z,100.00
2022-07-30T05:56:09.879Z,100.00
2022-07-30T05:58:36.541Z,100.00
2022-07-30T06:01:03.027Z,100.00
2022-07-30T06:03:29.527Z,100.00
2022-07-30T06:05:56.129Z,100.00
2022-07-30T06:08:22.769Z,100.00
2022-07-30T06:10:49.270Z,100.00
2022-07-30T06:13:15.729Z,100.00
2022-07-30T06:15:42.314Z,100.00
2022-07-30T06:18:08.824Z,100.00
2022-07-30T06:20:35.311Z,100.00
2022-07-30T06:23:01.936Z,100.00
2022-07-30T06:25:28.471Z,100.00
2022-07-30T06:27:55.030Z,100.00
2022-07-30T06:30:21.562Z,100.00
2022-07-30T06:32:57.632Z,100.00
2022-07-30T06:35:24.106Z,100.00
2022-07-30T06:38:05.680Z,100.00
2022-07-30T06:40:34.562Z,100.00
2022-07-30T06:43:01.067Z,100.00
2022-07-30T06:45:27.650Z,100.00
2022-07-30T06:47:58.736Z,100.00
2022-07-30T06:50:25.902Z,100.00
2022-07-30T06:52:52.639Z,100.00
2022-07-30T06:55:19.250Z,100.00
2022-07-30T06:57:45.754Z,100.00
2022-07-30T07:00:12.987Z,100.00
2022-07-30T07:02:39.532Z,100.00
2022-07-30T07:05:07.383Z,100.00
2022-07-30T07:07:42.348Z,100.00
2022-07-30T07:10:13.096Z,100.00
2022-07-30T07:12:39.594Z,100.00
2022-07-30T07:15:06.752Z,100.00
2022-07-30T07:17:33.257Z,100.00
2022-07-30T07:20:02.581Z,100.00
2022-07-30T07:22:29.671Z,100.00
2022-07-30T07:24:56.348Z,100.00
2022-07-30T07:27:22.879Z,100.00
2022-07-30T07:30:05.133Z,100.00
2022-07-30T07:32:33.622Z,100.00
2022-07-30T07:35:00.161Z,100.00
2022-07-30T07:37:27.024Z,100.00
2022-07-30T07:39:53.666Z,100.00
2022-07-30T07:42:20.181Z,100.00
2022-07-30T07:44:46.633Z,100.00
2022-07-30T07:47:13.154Z,100.00
2022-07-30T07:49:39.665Z,100.00
2022-07-30T07:52:06.622Z,100.00
2022-07-30T07:54:33.289Z,100.00
2022-07-30T07:57:03.253Z,99.47
2022-07-30T07:59:40.041Z,98.34
2022-07-30T08:02:08.084Z,100.00
2022-07-30T08:04:35.401Z,97.63
2022-07-30T08:07:02.402Z,94.14
2022-07-30T08:09:40.599Z,96.07
2022-07-30T08:12:11.415Z,94.47
2022-07-30T08:14:37.916Z,89.84
2022-07-30T08:17:04.728Z,92.20
2022-07-30T08:19:31.464Z,91.91
2022-07-30T08:21:59.611Z,91.69
2022-07-30T08:24:26.853Z,93.36
2022-07-30T08:26:53.618Z,93.37
2022-07-30T08:29:20.175Z,94.49
2022-07-30T08:31:46.753Z,93.69
2022-07-30T08:34:13.710Z,92.51
2022-07-30T08:36:40.798Z,90.65
2022-07-30T08:39:07.419Z,88.16
2022-07-30T08:41:38.940Z,89.86
2022-07-30T08:44:12.749Z,90.03
2022-07-30T08:46:47.025Z,84.24
2022-07-30T08:49:16.352Z,86.11
2022-07-30T08:51:44.215Z,82.03
2022-07-30T08:54:13.027Z,81.20
2022-07-30T08:56:41.014Z,82.90
2022-07-30T08:59:17.486Z,79.20
2022-07-30T09:01:44.126Z,81.02
2022-07-30T09:04:10.665Z,80.36
2022-07-30T09:06:37.704Z,84.31
2022-07-30T09:09:04.267Z,81.98
2022-07-30T09:11:34.794Z,80.66
2022-07-30T09:14:14.829Z,79.34
2022-07-30T09:16:42.033Z,80.59
2022-07-30T09:19:17.438Z,77.83
2022-07-30T09:21:58.536Z,79.06
2022-07-30T09:24:25.669Z,79.49
2022-07-30T09:27:07.227Z,79.14
2022-07-30T09:29:34.737Z,78.60
2022-07-30T09:32:09.427Z,74.84
2022-07-30T09:34:38.433Z,73.80
2022-07-30T09:37:17.566Z,69.53
2022-07-30T09:39:59.319Z,71.87
2022-07-30T09:42:28.804Z,71.05
2022-07-30T09:45:09.825Z,70.80
2022-07-30T09:47:42.138Z,71.81
2022-07-30T09:50:11.293Z,73.94
2022-07-30T09:52:44.037Z,70.45
2022-07-30T09:55:28.522Z,70.82
2022-07-30T09:57:58.866Z,69.64
2022-07-30T10:00:27.430Z,70.52
2022-07-30T10:02:58.172Z,70.07
2022-07-30T10:05:25.839Z,68.73
2022-07-30T10:07:54.773Z,68.83
2022-07-30T10:10:31.164Z,69.74
2022-07-30T10:13:04.240Z,69.25
2022-07-30T10:15:34.691Z,67.66
2022-07-30T10:18:06.345Z,68.39
2022-07-30T10:20:33.681Z,63.35
2022-07-30T10:23:08.345Z,62.51
2022-07-30T10:25:37.179Z,62.80
2022-07-30T10:28:17.658Z,61.09
2022-07-30T10:30:45.291Z,64.35
2022-07-30T10:33:36.547Z,59.10
2022-07-30T10:35:59.180Z,62.84
2022-07-30T10:38:30.224Z,60.00
2022-07-30T10:41:02.687Z,59.96
2022-07-30T10:44:04.834Z,61.34
2022-07-30T10:46:43.531Z,56.78
2022-07-30T10:49:18.595Z,59.07
2022-07-30T10:51:50.956Z,57.68
2022-07-30T10:54:36.523Z,65.32
2022-07-30T10:57:14.974Z,61.14
2022-07-30T11:00:03.732Z,55.88
2022-07-30T11:02:35.503Z,59.50
2022-07-30T11:05:17.795Z,54.16
2022-07-30T11:07:47.623Z,53.38
2022-07-30T11:10:44.081Z,58.11
2022-07-30T11:13:10.817Z,56.56
2022-07-30T11:15:56.947Z,56.50
2022-07-30T11:18:28.658Z,56.90
2022-07-30T11:21:16.553Z,54.84
2022-07-30T11:23:45.709Z,51.41
2022-07-30T11:26:32.022Z,56.56
2022-07-30T11:28:58.806Z,51.48
2022-07-30T11:31:54.848Z,50.26
2022-07-30T11:34:24.152Z,56.94
2022-07-30T11:37:22.480Z,54.51
2022-07-30T11:40:02.247Z,54.25
2022-07-30T11:42:34.971Z,52.09
2022-07-30T11:45:16.685Z,52.76
2022-07-30T11:47:49.043Z,50.68
2022-07-30T11:50:20.185Z,52.22
2022-07-30T11:53:03.071Z,53.18
2022-07-30T11:55:42.588Z,53.60
2022-07-30T11:58:29.351Z,53.87
2022-07-30T12:00:58.278Z,52.04
2022-07-30T12:03:29.874Z,53.47
2022-07-30T12:05:56.795Z,51.77
2022-07-30T12:08:35.356Z,50.70
2022-07-30T12:11:03.104Z,50.19
2022-07-30T12:13:44.471Z,51.09
2022-07-30T12:16:17.453Z,50.11
2022-07-30T12:18:45.498Z,53.35
2022-07-30T12:21:12.850Z,50.33
2022-07-30T12:23:42.036Z,47.81
2022-07-30T12:26:08.834Z,48.69
2022-07-30T12:28:36.273Z,47.86
2022-07-30T12:31:04.428Z,48.01
2022-07-30T12:33:31.545Z,49.13
2022-07-30T12:36:00.268Z,47.33
2022-07-30T12:38:28.411Z,47.96
2022-07-30T12:40:54.855Z,45.64
2022-07-30T12:43:44.007Z,46.70
2022-07-30T12:46:15.028Z,43.97
2022-07-30T12:48:56.103Z,46.71
2022-07-30T12:51:29.074Z,46.94
2022-07-30T12:53:57.095Z,46.49
2022-07-30T12:56:26.664Z,44.52
2022-07-30T12:58:54.842Z,44.05
2022-07-30T13:01:42.516Z,47.72
2022-07-30T13:04:10.429Z,48.32
2022-07-30T13:06:38.182Z,45.63
2022-07-30T13:09:05.499Z,42.78
2022-07-30T13:11:41.377Z,43.90
2022-07-30T13:14:09.256Z,44.69
2022-07-30T13:16:37.223Z,45.60
2022-07-30T13:19:06.201Z,44.38
2022-07-30T13:21:35.827Z,43.97
2022-07-30T13:24:02.754Z,42.79
2022-07-30T13:26:30.090Z,45.13
2022-07-30T13:29:01.653Z,45.24
2022-07-30T13:31:28.822Z,44.23
2022-07-30T13:34:12.288Z,44.40
2022-07-30T13:36:39.226Z,46.17
2022-07-30T13:39:05.718Z,47.61
2022-07-30T13:41:33.261Z,45.15
2022-07-30T13:44:00.985Z,45.70
2022-07-30T13:46:29.345Z,47.16
2022-07-30T13:48:56.682Z,45.09
2022-07-30T13:51:23.442Z,44.40
2022-07-30T13:53:50.220Z,43.75
2022-07-30T13:56:16.939Z,43.48
2022-07-30T13:58:46.454Z,45.25
2022-07-30T14:01:17.682Z,43.65
2022-07-30T14:03:49.889Z,43.82
2022-07-30T14:06:17.125Z,44.69
2022-07-30T14:08:45.796Z,43.45
2022-07-30T14:11:13.136Z,44.09
2022-07-30T14:13:48.390Z,42.78
2022-07-30T14:16:43.749Z,42.26
2022-07-30T14:19:05.701Z,42.87
2022-07-30T14:21:35.583Z,41.14
2022-07-30T14:24:05.656Z,42.94
2022-07-30T14:26:36.897Z,41.48
2022-07-30T14:29:07.160Z,40.65
2022-07-30T14:31:35.055Z,42.03
2022-07-30T14:34:02.659Z,40.71
2022-07-30T14:36:30.197Z,42.95
2022-07-30T14:38:58.098Z,43.67
2022-07-30T14:41:25.911Z,41.99
2022-07-30T14:43:53.520Z,40.44
2022-07-30T14:46:20.872Z,41.26
2022-07-30T14:48:47.797Z,41.52
2022-07-30T14:51:20.727Z,42.01
2022-07-30T14:53:52.180Z,41.99
2022-07-30T14:56:19.392Z,41.95
2022-07-30T14:58:46.222Z,42.62
2022-07-30T15:01:15.669Z,41.55
2022-07-30T15:03:44.089Z,40.49
2022-07-30T15:06:12.599Z,40.93
2022-07-30T15:08:39.314Z,39.92
2022-07-30T15:11:07.855Z,41.54
2022-07-30T15:13:36.362Z,41.74
2022-07-30T15:16:03.126Z,40.56
2022-07-30T15:18:29.856Z,40.54
2022-07-30T15:20:56.460Z,42.64
2022-07-30T15:23:23.203Z,40.10
2022-07-30T15:25:49.864Z,40.37
2022-07-30T15:28:16.577Z,40.24
2022-07-30T15:30:43.360Z,41.49
2022-07-30T15:33:09.836Z,41.96
2022-07-30T15:35:36.609Z,41.02
2022-07-30T15:38:03.642Z,43.31
2022-07-30T15:40:30.564Z,41.55
2022-07-30T15:42:57.098Z,40.10
2022-07-30T15:45:24.709Z,39.52
2022-07-30T15:47:51.859Z,39.13
2022-07-30T15:50:18.562Z,40.86
2022-07-30T15:52:45.281Z,39.45
2022-07-30T15:55:13.160Z,39.92
2022-07-30T15:57:40.802Z,39.32
2022-07-30T16:00:10.377Z,40.83
2022-07-30T16:02:37.896Z,41.20
2022-07-30T16:05:05.116Z,39.74
2022-07-30T16:07:31.640Z,38.62
2022-07-30T16:09:58.172Z,39.53
2022-07-30T16:12:24.909Z,38.98
2022-07-30T16:14:52.054Z,38.84
2022-07-30T16:17:18.792Z,40.21
2022-07-30T16:19:45.373Z,39.67
2022-07-30T16:22:15.034Z,40.34
2022-07-30T16:24:50.548Z,40.97
2022-07-30T16:27:17.174Z,39.72
2022-07-30T16:29:43.751Z,39.92
2022-07-30T16:32:10.429Z,39.85
2022-07-30T16:34:37.045Z,40.55
2022-07-30T16:37:04.342Z,40.17
2022-07-30T16:39:31.120Z,40.96
2022-07-30T16:41:57.661Z,40.22
2022-07-30T16:44:24.109Z,40.70
2022-07-30T16:46:50.607Z,40.39
2022-07-30T16:49:17.243Z,40.70
2022-07-30T16:51:44.031Z,39.38
2022-07-30T16:54:11.562Z,40.68
2022-07-30T16:56:38.041Z,39.37
2022-07-30T16:59:04.574Z,39.93
2022-07-30T17:01:32.218Z,39.30
2022-07-30T17:03:59.504Z,40.57
2022-07-30T17:06:26.252Z,39.67
2022-07-30T17:08:52.710Z,40.58
2022-07-30T17:11:47.780Z,39.97
2022-07-30T17:14:06.128Z,38.68
2022-07-30T17:16:32.672Z,39.79
2022-07-30T17:18:59.287Z,40.64
2022-07-30T17:21:26.024Z,39.15
2022-07-30T17:23:52.618Z,39.75
2022-07-30T17:26:19.162Z,39.10
2022-07-30T17:28:45.656Z,38.44
2022-07-30T17:31:12.629Z,39.81
2022-07-30T17:33:39.171Z,39.60
2022-07-30T17:36:08.424Z,40.80
2022-07-30T17:38:35.405Z,39.76
2022-07-30T17:41:02.336Z,39.48
2022-07-30T17:43:28.907Z,39.85
2022-07-30T17:45:55.462Z,39.44
2022-07-30T17:48:21.985Z,39.36
2022-07-30T17:50:48.727Z,39.54
2022-07-30T17:53:15.231Z,39.86
2022-07-30T17:55:41.986Z,40.12
2022-07-30T17:58:24.515Z,40.17
2022-07-30T18:00:51.153Z,39.46
2022-07-30T18:03:17.890Z,40.21
2022-07-30T18:05:44.558Z,39.83
2022-07-30T18:08:11.135Z,39.96
2022-07-30T18:10:37.677Z,40.17
2022-07-30T18:13:26.022Z,39.91
2022-07-30T18:15:50.935Z,40.31
2022-07-30T18:18:17.408Z,40.01
2022-07-30T18:20:48.382Z,40.79
2022-07-30T18:23:19.660Z,40.37
2022-07-30T18:25:51.566Z,40.07
2022-07-30T18:28:18.644Z,40.73
2022-07-30T18:30:45.224Z,40.96
2022-07-30T18:33:11.806Z,41.09
2022-07-30T18:35:38.537Z,41.11
2022-07-30T18:38:05.349Z,40.86
2022-07-30T18:40:32.312Z,41.27
2022-07-30T18:42:59.495Z,40.69
2022-07-30T18:45:28.629Z,41.33
2022-07-30T18:47:55.976Z,41.32
2022-07-30T18:50:24.103Z,41.95
2022-07-30T18:52:51.194Z,42.24
2022-07-30T18:55:20.813Z,41.33
2022-07-30T18:57:47.949Z,41.28
2022-07-30T19:00:34.464Z,41.60
2022-07-30T19:03:02.109Z,40.81
2022-07-30T19:05:29.129Z,41.14
2022-07-30T19:07:57.909Z,39.75
2022-07-30T19:10:26.384Z,41.40
2022-07-30T19:12:53.869Z,40.75
2022-07-30T19:15:20.754Z,41.41
2022-07-30T19:17:48.954Z,41.25
2022-07-30T19:20:15.707Z,41.46
2022-07-30T19:22:42.328Z,41.25
2022-07-30T19:25:10.425Z,41.38
2022-07-30T19:27:37.305Z,42.52
2022-07-30T19:30:04.734Z,42.17
2022-07-30T19:32:31.514Z,42.62
2022-07-30T19:34:58.142Z,42.53
2022-07-30T19:37:24.616Z,42.78
2022-07-30T19:39:58.878Z,43.33
2022-07-30T19:42:41.296Z,42.82
2022-07-30T19:45:11.753Z,44.01
2022-07-30T19:47:39.607Z,43.59
2022-07-30T19:50:10.316Z,44.09
2022-07-30T19:52:38.279Z,43.76
2022-07-30T19:55:30.515Z,43.81
2022-07-30T19:57:54.183Z,44.23
2022-07-30T20:00:25.013Z,44.31
2022-07-30T20:02:52.861Z,44.37
2022-07-30T20:05:20.049Z,44.92
2022-07-30T20:07:47.675Z,45.33
2022-07-30T20:10:15.734Z,45.27
2022-07-30T20:12:42.764Z,45.41
2022-07-30T20:15:16.344Z,45.70
2022-07-30T20:17:43.072Z,45.98
2022-07-30T20:20:10.424Z,45.81
2022-07-30T20:22:37.083Z,45.87
2022-07-30T20:25:06.222Z,46.73
2022-07-30T20:27:37.125Z,46.40
2022-07-30T20:30:05.792Z,47.68
2022-07-30T20:32:32.282Z,47.87
2022-07-30T20:34:58.850Z,47.93
2022-07-30T20:37:27.359Z,47.20
2022-07-30T20:39:54.869Z,47.32
2022-07-30T20:42:23.859Z,47.72
2022-07-30T20:44:53.213Z,47.65
2022-07-30T20:47:34.910Z,48.06
2022-07-30T20:50:10.421Z,48.79
2022-07-30T20:52:40.124Z,48.47
2022-07-30T20:55:14.442Z,48.56
2022-07-30T20:57:57.285Z,48.73
2022-07-30T21:00:30.160Z,48.68
2022-07-30T21:02:56.653Z,48.75
2022-07-30T21:05:23.366Z,48.41
2022-07-30T21:07:55.033Z,48.74
2022-07-30T21:10:23.727Z,48.84
2022-07-30T21:12:53.340Z,48.76
2022-07-30T21:15:26.332Z,49.11
2022-07-30T21:17:53.056Z,49.05
2022-07-30T21:20:27.705Z,48.76
2022-07-30T21:22:55.571Z,48.94
2022-07-30T21:25:23.473Z,49.04
2022-07-30T21:28:02.880Z,49.11
2022-07-30T21:30:31.110Z,49.12
2022-07-30T21:32:58.161Z,49.33
2022-07-30T21:35:25.006Z,49.45
2022-07-30T21:37:58.354Z,49.42
2022-07-30T21:40:25.031Z,49.07
2022-07-30T21:42:51.690Z,49.49
2022-07-30T21:45:19.425Z,49.56
2022-07-30T21:47:47.955Z,49.18
2022-07-30T21:50:15.954Z,49.95
2022-07-30T21:52:43.756Z,50.44
2022-07-30T21:55:13.377Z,50.72
2022-07-30T21:57:40.292Z,50.05
2022-07-30T22:00:14.890Z,50.45
2022-07-30T22:02:53.035Z,51.70
2022-07-30T22:05:21.694Z,51.94
2022-07-30T22:07:50.036Z,51.61
2022-07-30T22:10:21.343Z,51.59
2022-07-30T22:12:48.588Z,51.99
2022-07-30T22:15:15.323Z,52.16
2022-07-30T22:17:58.706Z,52.55
2022-07-30T22:20:28.671Z,52.19
2022-07-30T22:22:56.848Z,52.17
2022-07-30T22:25:23.688Z,52.08
2022-07-30T22:28:08.194Z,52.51
2022-07-30T22:30:34.709Z,52.56
2022-07-30T22:33:09.093Z,52.87
2022-07-30T22:35:36.720Z,52.57
2022-07-30T22:38:06.642Z,52.64
2022-07-30T22:40:33.787Z,53.11
2022-07-30T22:43:04.092Z,52.99
2022-07-30T22:45:45.778Z,52.17
2022-07-30T22:48:16.345Z,53.51
2022-07-30T22:50:42.898Z,53.60
2022-07-30T22:53:56.892Z,54.39
2022-07-30T22:55:56.452Z,54.42
2022-07-30T22:58:26.123Z,54.39
2022-07-30T23:00:53.165Z,55.18
2022-07-30T23:03:19.761Z,55.32
2022-07-30T23:05:56.189Z,55.03
2022-07-30T23:08:30.105Z,55.49
2022-07-30T23:10:59.776Z,57.21
2022-07-30T23:13:27.219Z,57.13
2022-07-30T23:15:53.931Z,57.01
2022-07-30T23:18:20.654Z,56.71
2022-07-30T23:20:47.169Z,57.01
2022-07-30T23:23:13.631Z,57.60
2022-07-30T23:25:40.588Z,57.67
2022-07-30T23:28:07.150Z,57.50
2022-07-30T23:30:34.429Z,57.35
2022-07-30T23:33:01.644Z,57.33
2022-07-30T23:35:28.123Z,58.23
2022-07-30T23:37:54.665Z,57.86
2022-07-30T23:40:21.274Z,57.95
2022-07-30T23:42:50.147Z,57.97
2022-07-30T23:45:17.647Z,58.25
2022-07-30T23:47:54.624Z,59.51
2022-07-30T23:50:30.077Z,60.38
2022-07-30T23:52:56.902Z,60.39
2022-07-30T23:55:23.589Z,60.42
2022-07-30T23:57:50.165Z,61.19
